Time;durP1;ratioP1;P1;durP2;ratioP2;P2;SDS_P1;SDS_P2;PMS_P1;PMS_P2;Temp;Humidity;BMP_temperature;BMP_pressure;BME280_temperature;BME280_humidity;BME280_pressure;Samples;Min_cycle;Max_cycle;Signal;HPM_P1;HPM_P2
2022/01/11 00:00:07;;;;;;;4.65;2.78;;;;;;;;;;5014799;28;20029;-82
2022/01/11 00:02:34;;;;;;;12.23;3.58;;;;;;;;;;5032812;28;20028;-82
2022/01/11 00:05:00;;;;;;;9.27;3.90;;;;;;;;;;5015192;28;20106;-83
2022/01/11 00:07:28;;;;;;;3.72;2.10;;;;;;;;;;5032463;28;20163;-83
2022/01/11 00:09:56;;;;;;;15.48;6.65;;;;;;;;;;5032156;28;20080;-82
2022/01/11 00:12:21;;;;;;;15.70;7.05;;;;;;;;;;5030880;28;20048;-82
2022/01/11 00:14:47;;;;;;;14.68;6.70;;;;;;;;;;5032056;28;20038;-82
2022/01/11 00:17:12;;;;;;;16.98;7.22;;;;;;;;;;5017316;28;20018;-83
2022/01/11 00:19:38;;;;;;;18.67;8.18;;;;;;;;;;5032159;28;20028;-83
2022/01/11 00:22:07;;;;;;;22.15;10.27;;;;;;;;;;5031926;28;20366;-82
2022/01/11 00:24:35;;;;;;;38.85;10.30;;;;;;;;;;5032371;28;20032;-83
2022/01/11 00:27:06;;;;;;;12.27;7.70;;;;;;;;;;5032261;28;20021;-83
2022/01/11 00:29:34;;;;;;;16.33;6.32;;;;;;;;;;5031939;28;20465;-83
2022/01/11 00:32:05;;;;;;;12.82;6.03;;;;;;;;;;5014959;28;20032;-83
2022/01/11 00:34:40;;;;;;;6.90;4.13;;;;;;;;;;5030121;28;20029;-83
2022/01/11 00:37:07;;;;;;;5.85;3.20;;;;;;;;;;5031067;28;20033;-82
2022/01/11 00:39:33;;;;;;;4.05;2.47;;;;;;;;;;5032292;28;20039;-83
2022/01/11 00:41:59;;;;;;;7.03;2.90;;;;;;;;;;5014349;28;20538;-84
2022/01/11 00:44:24;;;;;;;4.50;2.65;;;;;;;;;;5014503;28;20029;-85
2022/01/11 00:46:50;;;;;;;3.78;1.92;;;;;;;;;;5032085;28;20032;-83
2022/01/11 00:49:16;;;;;;;6.20;3.50;;;;;;;;;;5031694;28;20069;-83
2022/01/11 00:51:42;;;;;;;6.80;3.67;;;;;;;;;;5031923;28;20025;-85
2022/01/11 00:54:08;;;;;;;11.25;4.57;;;;;;;;;;5031623;28;20025;-83
2022/01/11 00:56:34;;;;;;;21.70;6.32;;;;;;;;;;5032016;28;20060;-83
2022/01/11 00:58:59;;;;;;;40.97;7.47;;;;;;;;;;5031547;28;20075;-82
2022/01/11 01:01:27;;;;;;;40.33;7.65;;;;;;;;;;5012319;28;20102;-82
2022/01/11 01:03:53;;;;;;;64.10;10.80;;;;;;;;;;5031461;28;20457;-82
2022/01/11 01:06:18;;;;;;;39.75;7.40;;;;;;;;;;5030095;28;20025;-82
2022/01/11 01:08:44;;;;;;;97.57;15.65;;;;;;;;;;5012351;28;20052;-81
2022/01/11 01:11:10;;;;;;;32.67;5.85;;;;;;;;;;5030824;28;20038;-81
2022/01/11 01:13:35;;;;;;;165.02;22.00;;;;;;;;;;5031371;28;20030;-83
2022/01/11 01:16:01;;;;;;;230.68;28.38;;;;;;;;;;5031201;28;20021;-82
2022/01/11 01:18:29;;;;;;;179.52;23.65;;;;;;;;;;5031358;28;20025;-82
2022/01/11 01:20:55;;;;;;;130.02;18.77;;;;;;;;;;5013688;28;20029;-83
2022/01/11 01:23:22;;;;;;;114.75;14.88;;;;;;;;;;5031161;28;20565;-82
2022/01/11 01:25:48;;;;;;;11.48;4.07;;;;;;;;;;5013619;28;20049;-82
2022/01/11 01:28:14;;;;;;;17.98;6.28;;;;;;;;;;5031259;28;20072;-82
2022/01/11 01:30:40;;;;;;;56.67;9.98;;;;;;;;;;5017075;28;20033;-82
2022/01/11 01:33:06;;;;;;;7.88;3.90;;;;;;;;;;5035373;28;20096;-83
2022/01/11 01:35:39;;;;;;;8.77;4.50;;;;;;;;;;5035501;28;20048;-83
2022/01/11 01:38:08;;;;;;;49.67;9.40;;;;;;;;;;5033270;28;20024;-83
2022/01/11 01:40:45;;;;;;;35.00;6.00;;;;;;;;;;5035254;28;20090;-83
2022/01/11 01:43:13;;;;;;;11.82;3.75;;;;;;;;;;5035380;28;20037;-84
2022/01/11 01:45:39;;;;;;;2.25;1.65;;;;;;;;;;5035713;28;20025;-85
2022/01/11 01:48:06;;;;;;;4.65;2.95;;;;;;;;;;5034953;28;20025;-83
2022/01/11 01:50:33;;;;;;;3.58;2.53;;;;;;;;;;5034641;28;20022;-82
2022/01/11 01:53:01;;;;;;;5.00;3.28;;;;;;;;;;5034887;28;20083;-83
2022/01/11 01:55:27;;;;;;;3.78;2.45;;;;;;;;;;5016966;28;20397;-83
2022/01/11 01:57:53;;;;;;;4.03;2.92;;;;;;;;;;5035023;28;20029;-85
2022/01/11 02:00:19;;;;;;;6.53;2.63;;;;;;;;;;5017518;28;20104;-83
2022/01/11 02:02:45;;;;;;;6.20;2.88;;;;;;;;;;5014203;28;20025;-83
2022/01/11 02:05:11;;;;;;;2.30;1.60;;;;;;;;;;5017223;28;20116;-82
2022/01/11 02:07:36;;;;;;;2.65;1.95;;;;;;;;;;5034758;28;20033;-83
2022/01/11 02:10:04;;;;;;;3.75;1.83;;;;;;;;;;5016989;28;20057;-83
2022/01/11 02:12:30;;;;;;;2.60;1.48;;;;;;;;;;5034619;28;20036;-84
2022/01/11 02:14:56;;;;;;;1.77;1.30;;;;;;;;;;5034452;28;20051;-84
2022/01/11 02:17:22;;;;;;;1.55;1.30;;;;;;;;;;5016985;28;20108;-83
2022/01/11 02:19:47;;;;;;;3.13;1.75;;;;;;;;;;5034970;28;20478;-83
2022/01/11 02:22:13;;;;;;;1.83;1.40;;;;;;;;;;5015582;28;20801;-84
2022/01/11 02:24:38;;;;;;;1.67;1.10;;;;;;;;;;5034393;28;20025;-83
2022/01/11 02:27:04;;;;;;;4.35;1.92;;;;;;;;;;5034696;28;20075;-85
2022/01/11 02:29:31;;;;;;;2.45;1.38;;;;;;;;;;5016406;28;20030;-84
2022/01/11 02:31:57;;;;;;;2.47;1.13;;;;;;;;;;5016988;28;20029;-83
2022/01/11 02:34:22;;;;;;;1.90;1.17;;;;;;;;;;5015012;28;20033;-84
2022/01/11 02:36:48;;;;;;;2.30;1.55;;;;;;;;;;5034472;28;20044;-82
2022/01/11 02:39:13;;;;;;;1.15;1.00;;;;;;;;;;5034488;28;20036;-83
2022/01/11 02:41:50;;;;;;;1.85;1.38;;;;;;;;;;5016088;28;20028;-83
2022/01/11 02:44:16;;;;;;;4.30;1.83;;;;;;;;;;5014027;28;20057;-84
2022/01/11 02:46:42;;;;;;;3.72;2.28;;;;;;;;;;5010249;28;20069;-83
2022/01/11 02:49:07;;;;;;;3.67;2.25;;;;;;;;;;5034285;28;20439;-83
2022/01/11 02:51:33;;;;;;;2.55;1.77;;;;;;;;;;5016565;28;20087;-83
2022/01/11 02:53:59;;;;;;;1.75;1.23;;;;;;;;;;5034142;28;20095;-84
2022/01/11 02:56:26;;;;;;;3.95;2.85;;;;;;;;;;5034277;28;20022;-83
2022/01/11 02:58:52;;;;;;;2.72;1.83;;;;;;;;;;5034185;28;20544;-84
2022/01/11 03:01:17;;;;;;;2.88;1.98;;;;;;;;;;5016440;28;20100;-85
2022/01/11 03:03:44;;;;;;;2.55;1.60;;;;;;;;;;5016211;28;20023;-84
2022/01/11 03:06:09;;;;;;;2.17;1.40;;;;;;;;;;5033826;28;20030;-83
2022/01/11 03:08:42;;;;;;;3.50;1.63;;;;;;;;;;5033262;28;20017;-85
2022/01/11 03:11:09;;;;;;;1.55;1.30;;;;;;;;;;5015943;28;20057;-84
2022/01/11 03:13:35;;;;;;;1.77;1.20;;;;;;;;;;5033709;28;20473;-85
2022/01/11 03:16:01;;;;;;;2.42;1.50;;;;;;;;;;5016022;28;20029;-84
2022/01/11 03:18:27;;;;;;;1.88;1.00;;;;;;;;;;5033949;28;20025;-85
2022/01/11 03:20:53;;;;;;;1.60;0.73;;;;;;;;;;5028792;28;20032;-84
2022/01/11 03:23:19;;;;;;;2.17;0.88;;;;;;;;;;5022668;28;20046;-85
2022/01/11 03:25:47;;;;;;;0.93;0.80;;;;;;;;;;5033757;28;20521;-84
2022/01/11 03:28:13;;;;;;;1.50;0.80;;;;;;;;;;5033420;28;20535;-84
2022/01/11 03:30:38;;;;;;;0.40;0.40;;;;;;;;;;5015645;28;20033;-85
2022/01/11 03:33:08;;;;;;;0.80;0.60;;;;;;;;;;5015462;28;20037;-85
2022/01/11 03:35:34;;;;;;;0.50;0.50;;;;;;;;;;5015264;28;20030;-85
2022/01/11 03:38:00;;;;;;;0.70;0.70;;;;;;;;;;5033788;28;20045;-85
2022/01/11 03:40:26;;;;;;;1.40;0.90;;;;;;;;;;5015463;28;20018;-84
2022/01/11 03:42:52;;;;;;;0.65;0.55;;;;;;;;;;5015192;28;20056;-85
2022/01/11 03:45:21;;;;;;;0.77;0.60;;;;;;;;;;5015444;28;20068;-85
2022/01/11 03:47:48;;;;;;;0.50;0.50;;;;;;;;;;5033330;28;20037;-84
2022/01/11 03:50:14;;;;;;;0.75;0.68;;;;;;;;;;5015129;28;20038;-83
2022/01/11 03:52:40;;;;;;;2.83;1.25;;;;;;;;;;5014373;28;20031;-84
2022/01/11 03:55:20;;;;;;;1.98;1.25;;;;;;;;;;5032309;28;20100;-83
2022/01/11 03:57:47;;;;;;;1.25;0.93;;;;;;;;;;5014896;28;20032;-83
2022/01/11 04:00:17;;;;;;;1.08;0.80;;;;;;;;;;5031468;28;20021;-83
2022/01/11 04:02:43;;;;;;;2.00;0.90;;;;;;;;;;5032549;28;20083;-83
2022/01/11 04:05:11;;;;;;;0.90;0.70;;;;;;;;;;5032541;28;20053;-83
2022/01/11 04:07:37;;;;;;;1.23;0.80;;;;;;;;;;5013405;28;20041;-82
2022/01/11 04:10:03;;;;;;;0.85;0.70;;;;;;;;;;5032005;28;20106;-83
2022/01/11 04:12:29;;;;;;;1.50;1.00;;;;;;;;;;5032232;28;20021;-83
2022/01/11 04:14:54;;;;;;;1.65;1.10;;;;;;;;;;5031903;28;20022;-83
2022/01/11 04:17:20;;;;;;;1.83;1.08;;;;;;;;;;5032183;28;20037;-83
2022/01/11 04:19:46;;;;;;;2.88;1.55;;;;;;;;;;5014518;28;20069;-83
2022/01/11 04:22:11;;;;;;;1.90;1.33;;;;;;;;;;5012595;28;20104;-82
2022/01/11 04:24:37;;;;;;;1.02;0.52;;;;;;;;;;5014078;28;20094;-83
2022/01/11 04:27:03;;;;;;;1.52;0.90;;;;;;;;;;5032250;28;20485;-83
2022/01/11 04:29:28;;;;;;;1.67;1.25;;;;;;;;;;5032069;28;20040;-83
2022/01/11 04:31:54;;;;;;;2.00;1.00;;;;;;;;;;5032037;28;20082;-82
2022/01/11 04:34:19;;;;;;;1.33;0.95;;;;;;;;;;5013860;28;20026;-82
2022/01/11 04:36:45;;;;;;;0.75;0.70;;;;;;;;;;5032284;28;20032;-83
2022/01/11 04:39:12;;;;;;;1.55;1.00;;;;;;;;;;5031925;28;20041;-83
2022/01/11 04:41:38;;;;;;;1.60;0.80;;;;;;;;;;5032078;28;20032;-83
2022/01/11 04:44:05;;;;;;;1.58;1.08;;;;;;;;;;5013989;28;20187;-82
2022/01/11 04:46:30;;;;;;;1.60;0.85;;;;;;;;;;5032225;28;20508;-84
2022/01/11 04:48:56;;;;;;;0.93;0.82;;;;;;;;;;5010152;28;20021;-84
2022/01/11 04:51:24;;;;;;;1.27;0.73;;;;;;;;;;5032121;28;20040;-84
2022/01/11 04:53:52;;;;;;;1.45;0.85;;;;;;;;;;5032335;28;20227;-83
2022/01/11 04:56:18;;;;;;;1.23;0.80;;;;;;;;;;5032418;28;20022;-83
2022/01/11 04:58:44;;;;;;;0.63;0.60;;;;;;;;;;5031846;28;20100;-83
2022/01/11 05:01:10;;;;;;;1.08;0.85;;;;;;;;;;5014243;28;20151;-86
2022/01/11 05:03:35;;;;;;;1.38;0.75;;;;;;;;;;5014270;28;20025;-84
2022/01/11 05:06:01;;;;;;;0.77;0.70;;;;;;;;;;5032091;28;20045;-84
2022/01/11 05:08:27;;;;;;;2.60;0.80;;;;;;;;;;5014054;28;20029;-85
2022/01/11 05:10:54;;;;;;;1.27;0.80;;;;;;;;;;5010862;28;20060;-85
2022/01/11 05:13:20;;;;;;;1.80;0.88;;;;;;;;;;5012685;28;20021;-86
2022/01/11 05:15:46;;;;;;;2.10;1.20;;;;;;;;;;5031559;28;20092;-85
2022/01/11 05:18:12;;;;;;;1.65;0.80;;;;;;;;;;5031780;28;20033;-84
2022/01/11 05:20:38;;;;;;;1.60;0.80;;;;;;;;;;5031430;28;20037;-84
2022/01/11 05:23:07;;;;;;;2.92;0.90;;;;;;;;;;5031335;28;20042;-83
2022/01/11 05:25:34;;;;;;;2.25;0.98;;;;;;;;;;5032018;28;20036;-83
2022/01/11 05:28:00;;;;;;;1.42;0.60;;;;;;;;;;5031626;28;20522;-83
2022/01/11 05:30:27;;;;;;;1.40;0.65;;;;;;;;;;5031339;28;20113;-83
2022/01/11 05:32:53;;;;;;;2.08;1.08;;;;;;;;;;5013772;28;20555;-85
2022/01/11 05:35:20;;;;;;;0.60;0.50;;;;;;;;;;5031253;28;20021;-83
2022/01/11 05:37:47;;;;;;;0.60;0.60;;;;;;;;;;5031612;28;20029;-84
2022/01/11 05:40:13;;;;;;;0.73;0.52;;;;;;;;;;5031575;28;20028;-84
2022/01/11 05:42:40;;;;;;;0.75;0.50;;;;;;;;;;5031001;28;20033;-83
2022/01/11 05:45:07;;;;;;;0.82;0.52;;;;;;;;;;5031457;28;20052;-84
2022/01/11 05:47:34;;;;;;;0.52;0.50;;;;;;;;;;5031477;28;20152;-84
2022/01/11 05:50:01;;;;;;;0.68;0.60;;;;;;;;;;5031077;28;20022;-83
2022/01/11 05:52:27;;;;;;;0.47;0.47;;;;;;;;;;5031086;28;20497;-82
2022/01/11 05:54:52;;;;;;;0.95;0.73;;;;;;;;;;5013558;28;20025;-84
2022/01/11 05:57:18;;;;;;;1.02;0.73;;;;;;;;;;5012426;28;20037;-82
2022/01/11 05:59:43;;;;;;;0.50;0.50;;;;;;;;;;5030765;28;20080;-82
2022/01/11 06:02:09;;;;;;;0.93;0.73;;;;;;;;;;5031123;28;20381;-83
2022/01/11 06:04:34;;;;;;;1.30;0.88;;;;;;;;;;5030386;28;20024;-83
2022/01/11 06:07:00;;;;;;;0.98;0.60;;;;;;;;;;5030961;28;20109;-83
2022/01/11 06:09:26;;;;;;;0.70;0.47;;;;;;;;;;5030739;28;20087;-82
2022/01/11 06:11:56;;;;;;;0.95;0.52;;;;;;;;;;5010537;28;20053;-84
2022/01/11 06:14:22;;;;;;;0.60;0.60;;;;;;;;;;5030888;28;20096;-85
2022/01/11 06:16:48;;;;;;;1.65;0.98;;;;;;;;;;5015532;28;20109;-84
2022/01/11 06:19:13;;;;;;;1.48;1.08;;;;;;;;;;5016573;28;20037;-84
2022/01/11 06:21:39;;;;;;;0.77;0.63;;;;;;;;;;5015425;28;20159;-84
2022/01/11 06:24:05;;;;;;;6.55;3.47;;;;;;;;;;5016395;28;20077;-83
2022/01/11 06:26:31;;;;;;;3.35;1.70;;;;;;;;;;5016211;28;20456;-82
2022/01/11 06:28:57;;;;;;;2.75;1.83;;;;;;;;;;5034279;28;20064;-84
2022/01/11 06:31:26;;;;;;;2.92;1.75;;;;;;;;;;5034306;28;20025;-84
2022/01/11 06:33:51;;;;;;;1.38;0.80;;;;;;;;;;5016498;28;20087;-83
2022/01/11 06:36:18;;;;;;;2.42;1.80;;;;;;;;;;5034266;28;20029;-84
2022/01/11 06:38:44;;;;;;;1.75;0.68;;;;;;;;;;5033919;28;20152;-83
2022/01/11 06:41:10;;;;;;;0.60;0.60;;;;;;;;;;5016027;28;20133;-84
2022/01/11 06:43:36;;;;;;;0.60;0.60;;;;;;;;;;5034085;28;20123;-84
2022/01/11 06:46:03;;;;;;;1.00;0.77;;;;;;;;;;5015006;28;20021;-84
2022/01/11 06:48:29;;;;;;;2.03;1.00;;;;;;;;;;5018215;28;20025;-84
2022/01/11 06:50:54;;;;;;;0.63;0.63;;;;;;;;;;5031835;28;20124;-84
2022/01/11 06:53:20;;;;;;;1.02;0.90;;;;;;;;;;5012957;28;20037;-83
2022/01/11 06:55:46;;;;;;;3.67;2.03;;;;;;;;;;5033163;28;20041;-82
2022/01/11 06:58:11;;;;;;;1.92;1.20;;;;;;;;;;5029391;28;20056;-83
2022/01/11 07:00:37;;;;;;;0.80;0.60;;;;;;;;;;5030641;28;20037;-83
2022/01/11 07:03:02;;;;;;;1.00;0.90;;;;;;;;;;5013930;28;20029;-82
2022/01/11 07:05:28;;;;;;;1.33;1.05;;;;;;;;;;5033438;28;20029;-84
2022/01/11 07:07:53;;;;;;;1.08;0.80;;;;;;;;;;5033267;28;20496;-83
2022/01/11 07:10:19;;;;;;;1.20;0.90;;;;;;;;;;5032847;28;20026;-82
2022/01/11 07:12:44;;;;;;;0.95;0.73;;;;;;;;;;5015685;28;20029;-83
2022/01/11 07:15:10;;;;;;;1.83;1.30;;;;;;;;;;5032222;28;20029;-81
2022/01/11 07:17:36;;;;;;;1.63;1.08;;;;;;;;;;5015484;28;20382;-81
2022/01/11 07:20:03;;;;;;;1.58;0.90;;;;;;;;;;5032075;28;20025;-80
2022/01/11 07:22:29;;;;;;;0.88;0.88;;;;;;;;;;5032648;28;20052;-80
2022/01/11 07:24:55;;;;;;;1.30;0.82;;;;;;;;;;5032483;28;20389;-81
2022/01/11 07:27:20;;;;;;;2.28;0.70;;;;;;;;;;5031802;28;20504;-81
2022/01/11 07:29:46;;;;;;;2.42;0.80;;;;;;;;;;5032614;28;20133;-80
2022/01/11 07:32:12;;;;;;;1.20;0.77;;;;;;;;;;5013846;28;20029;-81
2022/01/11 07:34:37;;;;;;;2.15;0.55;;;;;;;;;;5032806;28;20124;-81
2022/01/11 07:37:03;;;;;;;2.10;1.13;;;;;;;;;;5032637;28;20022;-81
2022/01/11 07:39:29;;;;;;;2.47;1.20;;;;;;;;;;5032819;28;20385;-81
2022/01/11 07:41:54;;;;;;;2.70;1.30;;;;;;;;;;5032520;28;20541;-81
2022/01/11 07:44:20;;;;;;;1.70;1.10;;;;;;;;;;5032639;28;20029;-80
2022/01/11 07:46:46;;;;;;;2.40;1.27;;;;;;;;;;5032472;28;20477;-81
2022/01/11 07:49:12;;;;;;;1.13;0.77;;;;;;;;;;5032573;28;20033;-80
2022/01/11 07:51:37;;;;;;;3.33;1.88;;;;;;;;;;5032129;28;20034;-81
2022/01/11 07:54:03;;;;;;;1.90;1.40;;;;;;;;;;5032164;28;20039;-81
2022/01/11 07:56:29;;;;;;;1.90;1.33;;;;;;;;;;5032556;28;20026;-81
2022/01/11 07:58:54;;;;;;;3.15;1.83;;;;;;;;;;5014086;28;20021;-81
2022/01/11 08:01:20;;;;;;;1.85;1.17;;;;;;;;;;5032127;28;20021;-82
2022/01/11 08:03:48;;;;;;;4.05;1.63;;;;;;;;;;5031096;28;20022;-82
2022/01/11 08:06:14;;;;;;;1.67;1.23;;;;;;;;;;5032281;28;20105;-82
2022/01/11 08:08:41;;;;;;;1.85;1.13;;;;;;;;;;5032349;28;20473;-81
2022/01/11 08:11:07;;;;;;;3.28;2.22;;;;;;;;;;5030140;28;20109;-81
2022/01/11 08:13:33;;;;;;;1.50;1.00;;;;;;;;;;5032075;28;20112;-81
2022/01/11 08:15:58;;;;;;;3.35;2.33;;;;;;;;;;5018025;28;20487;-81
2022/01/11 08:18:24;;;;;;;3.33;2.10;;;;;;;;;;5031827;28;20033;-80
2022/01/11 08:20:49;;;;;;;1.48;1.30;;;;;;;;;;5014169;28;20021;-82
2022/01/11 08:23:16;;;;;;;2.50;1.33;;;;;;;;;;5018025;28;20478;-81
2022/01/11 08:25:42;;;;;;;2.45;1.50;;;;;;;;;;5031636;28;20026;-81
2022/01/11 08:28:09;;;;;;;3.47;1.83;;;;;;;;;;5013946;28;20033;-82
2022/01/11 08:30:35;;;;;;;2.67;1.83;;;;;;;;;;5031812;28;20025;-83
2022/01/11 08:33:02;;;;;;;3.13;1.80;;;;;;;;;;5011210;28;20500;-82
2022/01/11 08:35:30;;;;;;;2.78;2.13;;;;;;;;;;5029466;28;20065;-79
2022/01/11 08:37:56;;;;;;;11.23;6.00;;;;;;;;;;5028413;28;20572;-82
2022/01/11 08:40:22;;;;;;;8.70;3.40;;;;;;;;;;5026962;28;20492;-81
2022/01/11 08:42:47;;;;;;;7.18;4.63;;;;;;;;;;5028524;28;20041;-80
2022/01/11 08:45:13;;;;;;;8.80;4.60;;;;;;;;;;5029286;28;20026;-81
2022/01/11 08:47:38;;;;;;;8.50;5.55;;;;;;;;;;5031432;28;20104;-81
2022/01/11 08:50:06;;;;;;;12.40;4.35;;;;;;;;;;5032596;28;20041;-81
2022/01/11 08:52:31;;;;;;;6.43;3.67;;;;;;;;;;5034394;28;20053;-80
2022/01/11 08:54:57;;;;;;;7.25;4.47;;;;;;;;;;5030966;28;20162;-84
2022/01/11 08:57:23;;;;;;;4.40;3.03;;;;;;;;;;5031246;28;20167;-80
2022/01/11 08:59:49;;;;;;;88.35;41.42;;;;;;;;;;5030674;28;20119;-80
2022/01/11 09:02:15;;;;;;;9.45;5.22;;;;;;;;;;5013423;28;20029;-81
2022/01/11 09:04:41;;;;;;;3.55;2.38;;;;;;;;;;5031739;28;20025;-79
2022/01/11 09:07:07;;;;;;;6.38;4.68;;;;;;;;;;5031410;28;20029;-83
2022/01/11 09:09:33;;;;;;;9.60;5.53;;;;;;;;;;5030469;28;20386;-80
2022/01/11 09:12:04;;;;;;;2.35;1.52;;;;;;;;;;5030872;28;20460;-82
2022/01/11 09:14:30;;;;;;;5.47;2.72;;;;;;;;;;5031088;28;20040;-81
2022/01/11 09:16:56;;;;;;;6.85;3.00;;;;;;;;;;5031282;28;20030;-83
2022/01/11 09:19:23;;;;;;;3.33;2.33;;;;;;;;;;5030688;28;20465;-80
2022/01/11 09:21:49;;;;;;;3.05;1.83;;;;;;;;;;5031254;28;20469;-82
2022/01/11 09:24:19;;;;;;;3.78;2.67;;;;;;;;;;5029876;28;20042;-82
2022/01/11 09:26:46;;;;;;;3.60;2.03;;;;;;;;;;5030509;28;20026;-82
2022/01/11 09:29:12;;;;;;;2.50;1.80;;;;;;;;;;5030054;28;20033;-81
2022/01/11 09:31:37;;;;;;;2.75;1.70;;;;;;;;;;5031119;28;20405;-81
2022/01/11 09:34:03;;;;;;;4.10;2.75;;;;;;;;;;5031075;28;20041;-81
2022/01/11 09:36:29;;;;;;;17.40;7.60;;;;;;;;;;5030969;28;20128;-82
2022/01/11 09:38:55;;;;;;;4.18;2.42;;;;;;;;;;5027422;28;20037;-82
2022/01/11 09:41:21;;;;;;;1.98;1.30;;;;;;;;;;5030763;28;20032;-82
2022/01/11 09:43:48;;;;;;;1.38;1.27;;;;;;;;;;5030223;28;20397;-81
2022/01/11 09:46:17;;;;;;;3.15;1.38;;;;;;;;;;5031150;28;20072;-82
2022/01/11 09:48:45;;;;;;;2.05;1.83;;;;;;;;;;5029892;28;20072;-83
2022/01/11 09:51:10;;;;;;;2.10;1.20;;;;;;;;;;5032413;28;20074;-82
2022/01/11 09:53:37;;;;;;;1.98;1.30;;;;;;;;;;5029474;28;20037;-80
2022/01/11 09:56:04;;;;;;;2.10;1.58;;;;;;;;;;5034699;28;20484;-82
2022/01/11 09:58:30;;;;;;;1.65;1.15;;;;;;;;;;5035740;28;20060;-81
2022/01/11 10:00:55;;;;;;;2.88;1.17;;;;;;;;;;5032487;28;20474;-83
2022/01/11 10:03:21;;;;;;;1.30;0.80;;;;;;;;;;5015543;28;20025;-81
2022/01/11 10:05:47;;;;;;;1.42;0.98;;;;;;;;;;5034667;28;20385;-81
2022/01/11 10:08:27;;;;;;;3.38;1.33;;;;;;;;;;5034173;28;20060;-82
2022/01/11 10:10:57;;;;;;;2.55;1.67;;;;;;;;;;5033842;28;20026;-82
2022/01/11 10:13:38;;;;;;;2.38;1.52;;;;;;;;;;5016307;28;20031;-81
2022/01/11 10:16:36;;;;;;;4.20;1.65;;;;;;;;;;5033730;28;20481;-83
2022/01/11 10:19:02;;;;;;;4.05;2.47;;;;;;;;;;5010647;28;20802;-81
2022/01/11 10:21:43;;;;;;;2.08;1.33;;;;;;;;;;5034255;28;20056;-82
2022/01/11 10:24:24;;;;;;;1.20;0.90;;;;;;;;;;5033522;28;20068;-82
2022/01/11 10:26:51;;;;;;;1.85;1.02;;;;;;;;;;5029795;28;20104;-81
2022/01/11 10:29:31;;;;;;;2.42;1.70;;;;;;;;;;5016193;28;20045;-82
2022/01/11 10:32:09;;;;;;;1.73;1.48;;;;;;;;;;5016438;28;20056;-81
2022/01/11 10:34:34;;;;;;;3.05;1.85;;;;;;;;;;5033595;28;20033;-83
2022/01/11 10:37:03;;;;;;;4.28;2.40;;;;;;;;;;5034026;28;20033;-80
2022/01/11 10:39:38;;;;;;;1.73;1.20;;;;;;;;;;5033775;28;20026;-81
2022/01/11 10:42:05;;;;;;;2.25;1.50;;;;;;;;;;5034010;28;20018;-83
2022/01/11 10:44:50;;;;;;;1.90;1.05;;;;;;;;;;5016826;28;20541;-82
2022/01/11 10:47:19;;;;;;;4.13;1.70;;;;;;;;;;5032973;28;20099;-82
2022/01/11 10:49:45;;;;;;;1.50;1.07;;;;;;;;;;5032865;28;20025;-81
2022/01/11 10:52:26;;;;;;;3.03;1.27;;;;;;;;;;5030079;28;20261;-81
2022/01/11 10:54:52;;;;;;;3.15;1.55;;;;;;;;;;5029982;28;20124;-82
2022/01/11 10:57:29;;;;;;;1.88;1.15;;;;;;;;;;5034054;28;20116;-82
2022/01/11 11:00:11;;;;;;;2.72;1.63;;;;;;;;;;5033896;28;20026;-82
2022/01/11 11:02:38;;;;;;;6.63;3.72;;;;;;;;;;5025025;28;20037;-82
2022/01/11 11:05:30;;;;;;;3.78;2.25;;;;;;;;;;4999759;28;20041;-81
2022/01/11 11:08:16;;;;;;;3.13;1.63;;;;;;;;;;5030427;28;20029;-82
2022/01/11 11:10:48;;;;;;;2.60;1.20;;;;;;;;;;5023764;28;20759;-82
2022/01/11 11:13:34;;;;;;;1.98;1.30;;;;;;;;;;5023814;28;20044;-81
2022/01/11 11:16:00;;;;;;;2.22;1.38;;;;;;;;;;5023155;28;20108;-79
2022/01/11 11:18:38;;;;;;;3.97;1.80;;;;;;;;;;5011924;28;20100;-82
2022/01/11 11:21:21;;;;;;;3.00;1.60;;;;;;;;;;5011772;28;20028;-82
2022/01/11 11:23:50;;;;;;;4.38;2.63;;;;;;;;;;5009156;28;20132;-80
2022/01/11 11:26:17;;;;;;;3.72;2.45;;;;;;;;;;5010920;28;20029;-81
2022/01/11 11:28:42;;;;;;;5.55;3.80;;;;;;;;;;5025842;28;20041;-80
2022/01/11 11:31:08;;;;;;;6.95;3.17;;;;;;;;;;5026516;28;20044;-81
2022/01/11 11:33:37;;;;;;;1.35;1.25;;;;;;;;;;5009243;28;20052;-82
2022/01/11 11:36:03;;;;;;;3.22;1.40;;;;;;;;;;5016128;28;20184;-81
2022/01/11 11:38:32;;;;;;;2.70;1.60;;;;;;;;;;5031418;28;20041;-82
2022/01/11 11:41:00;;;;;;;2.73;1.67;;;;;;;;;;5013128;28;20038;-84
2022/01/11 11:43:25;;;;;;;2.30;1.35;;;;;;;;;;5032010;28;20025;-80
2022/01/11 11:45:51;;;;;;;3.88;2.65;;;;;;;;;;5031909;28;20091;-80
2022/01/11 11:48:18;;;;;;;3.55;2.05;;;;;;;;;;5014225;28;20065;-80
2022/01/11 11:50:47;;;;;;;5.90;3.45;;;;;;;;;;5032568;28;20440;-81
2022/01/11 11:53:24;;;;;;;7.03;3.42;;;;;;;;;;5032312;28;20079;-81
2022/01/11 11:55:50;;;;;;;2.92;1.80;;;;;;;;;;5029246;28;20112;-82
2022/01/11 11:58:20;;;;;;;3.20;1.98;;;;;;;;;;5030847;28;20117;-81
2022/01/11 12:00:46;;;;;;;3.13;1.70;;;;;;;;;;5031564;28;20751;-80
2022/01/11 12:03:22;;;;;;;5.63;2.80;;;;;;;;;;5031292;28;20056;-80
2022/01/11 12:05:49;;;;;;;4.38;2.53;;;;;;;;;;5030576;28;20087;-81
2022/01/11 12:08:28;;;;;;;4.13;2.10;;;;;;;;;;5013121;28;20065;-80
2022/01/11 12:10:56;;;;;;;4.43;2.20;;;;;;;;;;5031369;28;20111;-80
2022/01/11 12:13:43;;;;;;;3.67;3.05;;;;;;;;;;5029132;28;20067;-81
2022/01/11 12:16:25;;;;;;;5.68;2.80;;;;;;;;;;5028980;28;20146;-81
2022/01/11 12:18:57;;;;;;;8.30;5.28;;;;;;;;;;5006799;28;20026;-80
2022/01/11 12:21:25;;;;;;;5.35;2.80;;;;;;;;;;5009642;28;20068;-83
2022/01/11 12:23:56;;;;;;;3.20;2.08;;;;;;;;;;5029202;28;20173;-82
2022/01/11 12:26:23;;;;;;;3.17;2.20;;;;;;;;;;5010224;28;20171;-81
2022/01/11 12:29:08;;;;;;;2.38;1.48;;;;;;;;;;5013157;28;20037;-85
2022/01/11 12:31:50;;;;;;;4.63;2.60;;;;;;;;;;5004957;28;22411;-83
2022/01/11 12:34:16;;;;;;;4.88;3.08;;;;;;;;;;5028023;28;20035;-85
2022/01/11 12:36:58;;;;;;;10.80;5.97;;;;;;;;;;5010362;28;20037;-86
2022/01/11 12:39:31;;;;;;;5.00;3.33;;;;;;;;;;5010118;28;20039;-85
2022/01/11 12:41:59;;;;;;;6.28;2.83;;;;;;;;;;5028413;28;20044;-84
2022/01/11 12:46:59;;;;;;;2.92;2.33;;;;;;;;;;5026814;28;20029;-84
2022/01/11 12:49:26;;;;;;;4.70;3.13;;;;;;;;;;5014090;28;20036;-84
2022/01/11 12:52:06;;;;;;;6.13;3.00;;;;;;;;;;5030742;28;20314;-85
2022/01/11 12:54:37;;;;;;;5.53;3.63;;;;;;;;;;5031942;28;20385;-85
2022/01/11 12:57:06;;;;;;;5.55;3.55;;;;;;;;;;5013773;28;20033;-85
2022/01/11 12:59:36;;;;;;;7.13;2.90;;;;;;;;;;5011568;28;20037;-85
2022/01/11 13:02:14;;;;;;;4.28;2.72;;;;;;;;;;5013848;28;20025;-85
2022/01/11 13:04:50;;;;;;;6.72;4.05;;;;;;;;;;5012694;28;20029;-84
2022/01/11 13:07:20;;;;;;;5.82;3.40;;;;;;;;;;5030021;28;20029;-84
2022/01/11 13:10:20;;;;;;;5.85;3.28;;;;;;;;;;5013995;28;20029;-84
2022/01/11 13:12:55;;;;;;;3.70;2.47;;;;;;;;;;5011917;28;20040;-84
2022/01/11 13:15:37;;;;;;;4.35;2.78;;;;;;;;;;5013882;28;20052;-85
2022/01/11 13:18:23;;;;;;;3.63;2.28;;;;;;;;;;5029504;28;20021;-84
2022/01/11 13:21:03;;;;;;;4.40;2.60;;;;;;;;;;5011373;28;20057;-84
2022/01/11 13:23:44;;;;;;;6.57;3.05;;;;;;;;;;5011022;28;20050;-84
2022/01/11 13:26:14;;;;;;;5.00;2.67;;;;;;;;;;5014016;28;20584;-84
2022/01/11 13:28:53;;;;;;;3.65;2.35;;;;;;;;;;5016659;28;20112;-83
2022/01/11 13:31:26;;;;;;;3.95;2.05;;;;;;;;;;5023059;28;20025;-84
2022/01/11 13:34:00;;;;;;;4.28;2.63;;;;;;;;;;5035053;28;20110;-85
2022/01/11 13:36:31;;;;;;;5.82;2.85;;;;;;;;;;5035773;28;20060;-84
2022/01/11 13:39:22;;;;;;;7.75;4.40;;;;;;;;;;5018327;28;20481;-83
2022/01/11 13:41:57;;;;;;;4.40;2.55;;;;;;;;;;5035326;28;20036;-84
2022/01/11 13:44:25;;;;;;;6.05;3.63;;;;;;;;;;5033343;28;20036;-82
2022/01/11 13:46:56;;;;;;;4.93;2.75;;;;;;;;;;5032735;28;20388;-83
2022/01/11 13:49:32;;;;;;;11.73;4.10;;;;;;;;;;5035703;28;20072;-83
2022/01/11 13:52:15;;;;;;;3.42;2.35;;;;;;;;;;5017434;28;20485;-85
2022/01/11 13:54:48;;;;;;;4.32;2.90;;;;;;;;;;5029152;28;20030;-83
2022/01/11 13:57:22;;;;;;;4.13;2.45;;;;;;;;;;5034857;28;20786;-84
2022/01/11 14:00:10;;;;;;;6.22;3.90;;;;;;;;;;5034874;28;20051;-83
2022/01/11 14:02:38;;;;;;;5.28;3.25;;;;;;;;;;5034024;28;20465;-82
2022/01/11 14:05:09;;;;;;;4.45;3.00;;;;;;;;;;5034941;28;20104;-83
2022/01/11 14:07:36;;;;;;;5.95;3.38;;;;;;;;;;5034758;28;20026;-81
2022/01/11 14:10:10;;;;;;;6.20;3.72;;;;;;;;;;5034449;28;20021;-81
2022/01/11 14:12:41;;;;;;;4.20;3.08;;;;;;;;;;5034627;28;20102;-82
2022/01/11 14:15:07;;;;;;;5.45;3.08;;;;;;;;;;5017025;28;20021;-82
2022/01/11 14:17:35;;;;;;;10.07;3.92;;;;;;;;;;5016230;28;20036;-82
2022/01/11 14:20:05;;;;;;;5.95;3.17;;;;;;;;;;5031580;28;20025;-82
2022/01/11 14:22:44;;;;;;;6.85;3.40;;;;;;;;;;5034006;28;20111;-82
2022/01/11 14:25:31;;;;;;;5.70;3.58;;;;;;;;;;5034040;28;20385;-82
2022/01/11 14:27:58;;;;;;;6.00;3.20;;;;;;;;;;5033713;28;20132;-83
2022/01/11 14:30:40;;;;;;;5.97;3.38;;;;;;;;;;5034024;28;20061;-82
2022/01/11 14:33:26;;;;;;;9.20;5.82;;;;;;;;;;5030987;28;20029;-82
2022/01/11 14:36:06;;;;;;;4.13;2.70;;;;;;;;;;5031976;28;20038;-84
2022/01/11 14:38:49;;;;;;;6.68;3.90;;;;;;;;;;5016033;28;20064;-81
2022/01/11 14:41:19;;;;;;;7.05;3.42;;;;;;;;;;5033882;28;20029;-81
2022/01/11 14:44:03;;;;;;;5.40;3.17;;;;;;;;;;5033855;28;20056;-80
2022/01/11 14:46:29;;;;;;;5.65;3.58;;;;;;;;;;5013537;28;20496;-82
2022/01/11 14:49:07;;;;;;;7.22;3.85;;;;;;;;;;5034155;28;20037;-82
2022/01/11 14:51:39;;;;;;;5.63;3.53;;;;;;;;;;5029479;28;20461;-83